Time;durP1;ratioP1;P1;durP2;ratioP2;P2;SDS_P1;SDS_P2;PMS_P1;PMS_P2;Temp;Humidity;BMP_temperature;BMP_pressure;BME280_temperature;BME280_humidity;BME280_pressure;Samples;Min_cycle;Max_cycle;Signal;HPM_P1;HPM_P2
2022/10/05 00:00:35;;;;;;;;;;;25.00;99.90;;;;;;4181649;28;19935;-68
2022/10/05 00:02:58;;;;;;;;;;;25.00;99.90;;;;;;4186679;28;19936;-68
2022/10/05 00:05:39;;;;;;;;;;;25.10;99.90;;;;;;4194246;28;20397;-67
2022/10/05 00:08:03;;;;;;;;;;;25.10;99.90;;;;;;4191761;28;20624;-68
2022/10/05 00:10:27;;;;;;;;;;;25.20;99.90;;;;;;4211052;28;19971;-67
2022/10/05 00:12:51;;;;;;;;;;;25.30;99.90;;;;;;4182976;28;20338;-67
2022/10/05 00:14:59;;;;;;;;;;;25.20;99.90;;;;;;4222059;28;19928;-68
2022/10/05 00:17:24;;;;;;;;;;;25.10;99.90;;;;;;4228485;27;20454;-66
2022/10/05 00:19:39;;;;;;;;;;;25.20;99.90;;;;;;4227525;28;19928;-68
2022/10/05 00:21:51;;;;;;;;;;;25.40;99.90;;;;;;4215610;28;19928;-67
2022/10/05 00:24:15;;;;;;;;;;;25.40;99.90;;;;;;4194369;28;19928;-68
2022/10/05 00:26:25;;;;;;;;;;;25.50;99.90;;;;;;4194676;28;20014;-70
2022/10/05 00:28:32;;;;;;;;;;;25.60;99.90;;;;;;4177891;28;20423;-67
2022/10/05 00:30:44;;;;;;;;;;;25.50;99.90;;;;;;4175576;28;20060;-67
2022/10/05 00:33:08;;;;;;;;;;;25.70;99.90;;;;;;4182279;28;20343;-66
2022/10/05 00:35:18;;;;;;;;;;;25.70;99.90;;;;;;4196191;28;19931;-66
2022/10/05 00:37:30;;;;;;;;;;;25.80;99.90;;;;;;4188040;28;19925;-67
2022/10/05 00:39:39;;;;;;;;;;;25.90;99.90;;;;;;4211781;28;19939;-67
2022/10/05 00:41:55;;;;;;;;;;;25.90;99.90;;;;;;4211687;28;19934;-65
2022/10/05 00:44:17;;;;;;;;;;;25.90;99.90;;;;;;4181988;28;19964;-66
2022/10/05 00:46:38;;;;;;;;;;;25.90;99.90;;;;;;4202686;28;19928;-66
2022/10/05 00:48:55;;;;;;;;;;;26.00;99.90;;;;;;4180939;28;19933;-66
2022/10/05 00:51:32;;;;;;;;;;;26.00;99.90;;;;;;4206222;28;19948;-66
2022/10/05 00:53:45;;;;;;;;;;;26.10;99.90;;;;;;4195806;28;19928;-66
2022/10/05 00:55:57;;;;;;;;;;;26.20;99.90;;;;;;4216902;28;20345;-67
2022/10/05 00:58:22;;;;;;;;;;;26.20;99.90;;;;;;4195912;28;19935;-69
2022/10/05 01:00:55;;;;;;;;;;;26.20;99.90;;;;;;4195784;28;19928;-68
2022/10/05 01:03:29;;;;;;;;;;;26.30;99.90;;;;;;4210818;28;20793;-68
2022/10/05 01:05:46;;;;;;;;;;;26.40;99.90;;;;;;4193635;28;19958;-70
2022/10/05 01:08:23;;;;;;;;;;;26.40;99.90;;;;;;4192784;28;19968;-68
2022/10/05 01:10:46;;;;;;;;;;;26.40;99.90;;;;;;4195643;28;19978;-69
2022/10/05 01:13:06;;;;;;;;;;;26.40;99.90;;;;;;4195489;28;19925;-68
2022/10/05 01:15:32;;;;;;;;;;;26.60;99.90;;;;;;4195963;28;19995;-68
2022/10/05 01:17:46;;;;;;;;;;;26.70;99.90;;;;;;4213010;28;20544;-70
2022/10/05 01:20:26;;;;;;;;;;;26.80;99.90;;;;;;4181332;28;19939;-67
2022/10/05 01:23:01;;;;;;;;;;;26.80;99.90;;;;;;4196314;28;19936;-67
2022/10/05 01:25:29;;;;;;;;;;;26.80;99.90;;;;;;4197820;28;20019;-68
2022/10/05 01:27:55;;;;;;;;;;;26.80;99.90;;;;;;4198888;28;19934;-67
2022/10/05 01:30:18;;;;;;;;;;;26.90;99.90;;;;;;4194764;28;20718;-66
2022/10/05 01:32:43;;;;;;;;;;;27.00;99.90;;;;;;4187576;28;20440;-68
2022/10/05 01:35:09;;;;;;;;;;;27.00;99.90;;;;;;4195235;28;20306;-66
2022/10/05 01:37:41;;;;;;;;;;;27.10;99.90;;;;;;4211114;28;19935;-67
2022/10/05 01:40:08;;;;;;;;;;;27.10;99.90;;;;;;4210986;28;19931;-67
2022/10/05 01:42:37;;;;;;;;;;;27.20;99.90;;;;;;4195749;28;20405;-67
2022/10/05 01:45:12;;;;;;;;;;;27.20;99.90;;;;;;4181892;28;20024;-68
2022/10/05 01:47:46;;;;;;;;;;;27.30;99.90;;;;;;4208235;28;20624;-68
2022/10/05 01:50:23;;;;;;;;;;;27.30;99.90;;;;;;4216076;28;19939;-68
2022/10/05 01:52:58;;;;;;;;;;;27.30;99.90;;;;;;4207074;28;19930;-66
2022/10/05 01:55:14;;;;;;;;;;;27.30;99.90;;;;;;4183654;28;19939;-67
2022/10/05 01:57:39;;;;;;;;;;;27.40;99.90;;;;;;4208508;28;19928;-67
2022/10/05 02:00:06;;;;;;;;;;;27.40;99.90;;;;;;4187005;28;19938;-68
2022/10/05 02:02:37;;;;;;;;;;;27.50;99.90;;;;;;4194666;28;20071;-68
2022/10/05 02:05:06;;;;;;;;;;;27.50;99.90;;;;;;4181895;28;19940;-68
2022/10/05 02:07:23;;;;;;;;;;;27.60;99.90;;;;;;4189158;28;19951;-68
2022/10/05 02:09:31;;;;;;;;;;;27.60;99.90;;;;;;4194747;28;19929;-68
2022/10/05 02:11:45;;;;;;;;;;;27.70;99.90;;;;;;4179604;28;19929;-68
2022/10/05 02:14:03;;;;;;;;;;;27.70;99.90;;;;;;4169974;28;19987;-68
2022/10/05 02:16:15;;;;;;;;;;;27.70;99.90;;;;;;4187628;28;19975;-67
2022/10/05 02:18:21;;;;;;;;;;;27.80;99.90;;;;;;4203250;28;20612;-69
2022/10/05 02:20:26;;;;;;;;;;;27.80;99.90;;;;;;4192624;28;19925;-69
2022/10/05 02:22:52;;;;;;;;;;;27.90;99.90;;;;;;4172834;28;20303;-68
2022/10/05 02:24:58;;;;;;;;;;;27.90;99.90;;;;;;4191683;28;19925;-67
2022/10/05 02:27:03;;;;;;;;;;;28.00;99.90;;;;;;4178121;28;19933;-67
2022/10/05 02:29:09;;;;;;;;;;;28.10;99.90;;;;;;4223100;28;20001;-70
2022/10/05 02:31:16;;;;;;;;;;;28.10;99.90;;;;;;4210223;28;19983;-67
2022/10/05 02:33:26;;;;;;;;;;;28.00;99.90;;;;;;4184791;28;19959;-68
2022/10/05 02:35:33;;;;;;;;;;;28.10;99.90;;;;;;4180624;28;19933;-68
2022/10/05 02:37:43;;;;;;;;;;;28.10;99.90;;;;;;4200573;28;19940;-68
2022/10/05 02:39:58;;;;;;;;;;;28.20;99.90;;;;;;4200589;28;19947;-68
2022/10/05 02:42:03;;;;;;;;;;;28.20;99.90;;;;;;4197658;28;20308;-68
2022/10/05 02:44:13;;;;;;;;;;;28.20;99.90;;;;;;4200318;28;19932;-68
2022/10/05 02:46:22;;;;;;;;;;;28.30;99.90;;;;;;4200504;28;19956;-68
2022/10/05 02:48:32;;;;;;;;;;;28.30;99.90;;;;;;4209921;28;19928;-68
2022/10/05 02:50:46;;;;;;;;;;;28.40;99.90;;;;;;4197987;28;20291;-67
2022/10/05 02:52:59;;;;;;;;;;;28.50;99.90;;;;;;4200495;28;20321;-68
2022/10/05 02:55:14;;;;;;;;;;;28.40;99.90;;;;;;4199296;28;19929;-68
2022/10/05 02:57:30;;;;;;;;;;;28.50;99.90;;;;;;4197755;28;19960;-66
2022/10/05 02:59:38;;;;;;;;;;;28.60;99.90;;;;;;4224114;28;20403;-68
2022/10/05 03:01:50;;;;;;;;;;;28.60;99.90;;;;;;4181285;28;19971;-69
2022/10/05 03:03:59;;;;;;;;;;;28.60;99.90;;;;;;4169868;28;19932;-67
2022/10/05 03:06:07;;;;;;;;;;;28.60;99.90;;;;;;4174090;28;20030;-67
2022/10/05 03:08:11;;;;;;;;;;;28.70;99.90;;;;;;4177107;28;19935;-68
2022/10/05 03:10:19;;;;;;;;;;;28.80;99.90;;;;;;4180642;28;19929;-68
2022/10/05 03:12:35;;;;;;;;;;;28.80;99.90;;;;;;4195871;28;19928;-66
2022/10/05 03:14:40;;;;;;;;;;;28.80;99.90;;;;;;4200553;28;19982;-68
2022/10/05 03:16:50;;;;;;;;;;;28.90;99.90;;;;;;4187860;28;19967;-68
2022/10/05 03:19:02;;;;;;;;;;;29.00;99.90;;;;;;4184291;28;19932;-67
2022/10/05 03:21:13;;;;;;;;;;;29.00;99.90;;;;;;4196226;28;19931;-66
2022/10/05 03:23:23;;;;;;;;;;;29.00;99.90;;;;;;4203089;28;19928;-67
2022/10/05 03:25:40;;;;;;;;;;;29.10;99.90;;;;;;4200847;28;19954;-67
2022/10/05 03:27:50;;;;;;;;;;;29.10;99.90;;;;;;4196476;28;19928;-68
2022/10/05 03:29:57;;;;;;;;;;;29.10;99.90;;;;;;4221932;27;19928;-67
2022/10/05 03:32:13;;;;;;;;;;;29.20;99.90;;;;;;4189261;28;19928;-67
2022/10/05 03:34:36;;;;;;;;;;;29.20;99.90;;;;;;4198571;28;19936;-68
2022/10/05 03:36:40;;;;;;;;;;;29.30;99.90;;;;;;4194456;28;19928;-65
2022/10/05 03:38:51;;;;;;;;;;;29.30;99.90;;;;;;4203184;28;19935;-67
2022/10/05 03:41:16;;;;;;;;;;;29.30;99.90;;;;;;4191377;28;19929;-67
2022/10/05 03:43:26;;;;;;;;;;;29.40;99.90;;;;;;4217677;28;20532;-68
2022/10/05 03:45:42;;;;;;;;;;;29.50;99.90;;;;;;4192429;28;19938;-68
2022/10/05 03:47:50;;;;;;;;;;;29.50;99.90;;;;;;4193240;28;19975;-68
2022/10/05 03:50:06;;;;;;;;;;;29.50;99.90;;;;;;4219299;27;19971;-67
2022/10/05 03:52:14;;;;;;;;;;;29.60;99.90;;;;;;4191919;28;19997;-68
2022/10/05 03:54:23;;;;;;;;;;;29.50;99.90;;;;;;4176590;28;19979;-67
2022/10/05 03:56:35;;;;;;;;;;;29.50;99.90;;;;;;4168155;28;19929;-67
2022/10/05 03:58:39;;;;;;;;;;;29.50;99.90;;;;;;4199524;28;19959;-67
2022/10/05 04:00:44;;;;;;;;;;;29.50;99.90;;;;;;4193305;28;20015;-66
2022/10/05 04:02:51;;;;;;;;;;;29.50;99.90;;;;;;4192487;28;20634;-66
2022/10/05 04:04:58;;;;;;;;;;;29.70;99.90;;;;;;4207547;28;19967;-67
2022/10/05 04:07:02;;;;;;;;;;;29.70;99.90;;;;;;4176508;28;19929;-66
2022/10/05 04:09:10;;;;;;;;;;;29.80;99.90;;;;;;4176727;28;19982;-66
2022/10/05 04:11:22;;;;;;;;;;;29.80;99.90;;;;;;4192624;28;19929;-67
2022/10/05 04:13:26;;;;;;;;;;;29.80;99.90;;;;;;4159850;28;19929;-66
2022/10/05 04:15:39;;;;;;;;;;;29.90;99.90;;;;;;4190545;28;20306;-67
2022/10/05 04:17:45;;;;;;;;;;;30.00;99.90;;;;;;4161596;28;20347;-67
2022/10/05 04:19:52;;;;;;;;;;;30.00;99.90;;;;;;4192336;28;19929;-67
2022/10/05 04:22:06;;;;;;;;;;;30.10;99.90;;;;;;4200917;28;20330;-67
2022/10/05 04:24:12;;;;;;;;;;;30.10;99.90;;;;;;4192485;28;19939;-67
2022/10/05 04:26:24;;;;;;;;;;;30.20;99.90;;;;;;4201812;28;19928;-67
2022/10/05 04:28:34;;;;;;;;;;;30.20;99.90;;;;;;4202806;28;19928;-67
2022/10/05 04:30:38;;;;;;;;;;;30.30;99.90;;;;;;4192336;28;19928;-67
2022/10/05 04:32:53;;;;;;;;;;;30.30;99.90;;;;;;4218898;28;19945;-67
2022/10/05 04:35:00;;;;;;;;;;;30.20;99.90;;;;;;4178903;28;19929;-67
2022/10/05 04:37:07;;;;;;;;;;;30.10;99.90;;;;;;4204583;28;19934;-66
2022/10/05 04:39:14;;;;;;;;;;;30.30;99.90;;;;;;4184153;28;19982;-68
2022/10/05 04:41:25;;;;;;;;;;;30.40;99.90;;;;;;4199658;28;19928;-66
2022/10/05 04:43:33;;;;;;;;;;;30.30;99.90;;;;;;4207633;28;20314;-66
2022/10/05 04:45:43;;;;;;;;;;;30.30;99.90;;;;;;4200524;28;20354;-65
2022/10/05 04:47:51;;;;;;;;;;;30.30;99.90;;;;;;4197908;28;19935;-65
2022/10/05 04:50:07;;;;;;;;;;;30.40;99.90;;;;;;4198913;28;19939;-65
2022/10/05 04:52:17;;;;;;;;;;;30.30;99.90;;;;;;4201166;28;19928;-66
2022/10/05 04:54:34;;;;;;;;;;;30.30;99.90;;;;;;4206652;28;20027;-66
2022/10/05 04:56:41;;;;;;;;;;;30.30;99.90;;;;;;4185091;28;19929;-67
2022/10/05 04:58:45;;;;;;;;;;;30.40;99.90;;;;;;4183505;28;19935;-67
2022/10/05 05:01:02;;;;;;;;;;;30.50;99.90;;;;;;4199801;28;19951;-66
2022/10/05 05:03:18;;;;;;;;;;;30.60;99.90;;;;;;4215480;28;20034;-66
2022/10/05 05:05:25;;;;;;;;;;;30.50;99.60;;;;;;4196019;28;19935;-68
2022/10/05 05:07:43;;;;;;;;;;;30.50;99.90;;;;;;4186781;28;20291;-67
2022/10/05 05:09:47;;;;;;;;;;;30.60;99.90;;;;;;4175858;28;20315;-66
2022/10/05 05:12:04;;;;;;;;;;;30.50;99.90;;;;;;4192074;28;19928;-66
2022/10/05 05:14:12;;;;;;;;;;;30.40;99.90;;;;;;4193377;28;19928;-66
2022/10/05 05:16:35;;;;;;;;;;;30.50;99.90;;;;;;4191326;28;19955;-66
2022/10/05 05:18:53;;;;;;;;;;;30.40;99.90;;;;;;4181989;28;19975;-66
2022/10/05 05:21:10;;;;;;;;;;;30.50;99.90;;;;;;4183425;28;19936;-67
2022/10/05 05:23:26;;;;;;;;;;;30.70;99.90;;;;;;4186834;28;20284;-67
2022/10/05 05:25:31;;;;;;;;;;;30.60;99.80;;;;;;4172442;28;20004;-67
2022/10/05 05:27:47;;;;;;;;;;;30.80;99.90;;;;;;4188596;28;19928;-67
2022/10/05 05:30:02;;;;;;;;;;;30.90;99.90;;;;;;4186430;28;19929;-67
2022/10/05 05:32:16;;;;;;;;;;;30.80;99.40;;;;;;4189263;28;19929;-66
2022/10/05 05:34:21;;;;;;;;;;;30.70;99.40;;;;;;4186328;28;19951;-67
2022/10/05 05:36:44;;;;;;;;;;;30.70;99.50;;;;;;4178110;28;19928;-67
2022/10/05 05:38:52;;;;;;;;;;;30.80;99.10;;;;;;4170529;28;20746;-67
2022/10/05 05:40:59;;;;;;;;;;;30.90;98.70;;;;;;4187507;28;19935;-68
2022/10/05 05:43:09;;;;;;;;;;;30.90;98.50;;;;;;4189337;28;20359;-68
2022/10/05 05:45:22;;;;;;;;;;;30.90;99.10;;;;;;4197951;28;19997;-67
2022/10/05 05:47:34;;;;;;;;;;;31.00;99.60;;;;;;4187659;28;19929;-67
2022/10/05 05:49:51;;;;;;;;;;;31.10;99.80;;;;;;4188817;28;19986;-67
2022/10/05 05:52:16;;;;;;;;;;;31.20;99.90;;;;;;4188539;28;19963;-67
2022/10/05 05:54:32;;;;;;;;;;;31.40;99.50;;;;;;4188751;28;20333;-67
2022/10/05 05:56:38;;;;;;;;;;;31.40;99.00;;;;;;4187680;28;20539;-67
2022/10/05 05:58:54;;;;;;;;;;;31.40;98.10;;;;;;4195998;28;19932;-66
2022/10/05 06:01:18;;;;;;;;;;;31.40;97.80;;;;;;4187210;28;19928;-66
2022/10/05 06:03:37;;;;;;;;;;;31.40;98.00;;;;;;4188676;28;20014;-67
2022/10/05 06:05:52;;;;;;;;;;;31.50;98.70;;;;;;4172392;28;20102;-66
2022/10/05 06:07:57;;;;;;;;;;;31.60;98.90;;;;;;4168378;28;19928;-67
2022/10/05 06:10:20;;;;;;;;;;;31.70;98.70;;;;;;4172603;28;19979;-67
2022/10/05 06:12:36;;;;;;;;;;;31.60;98.70;;;;;;4188114;28;19962;-67
2022/10/05 06:14:42;;;;;;;;;;;31.70;98.50;;;;;;4196595;28;19928;-67
2022/10/05 06:16:48;;;;;;;;;;;31.80;98.20;;;;;;4193841;28;20047;-68
2022/10/05 06:19:11;;;;;;;;;;;31.80;98.00;;;;;;4195775;28;19929;-67
2022/10/05 06:21:18;;;;;;;;;;;31.90;98.60;;;;;;4213374;28;19928;-68
2022/10/05 06:23:42;;;;;;;;;;;32.00;98.50;;;;;;4185113;28;20346;-67
2022/10/05 06:25:58;;;;;;;;;;;32.00;97.80;;;;;;4188749;28;20452;-68
2022/10/05 06:28:04;;;;;;;;;;;32.00;98.10;;;;;;4203410;28;19932;-68
2022/10/05 06:30:10;;;;;;;;;;;32.00;98.10;;;;;;4172164;28;19928;-67
2022/10/05 06:32:16;;;;;;;;;;;32.00;98.10;;;;;;4185820;28;19935;-66
2022/10/05 06:34:22;;;;;;;;;;;32.10;98.30;;;;;;4157308;28;19933;-66
2022/10/05 06:36:34;;;;;;;;;;;32.10;98.10;;;;;;4176798;28;20303;-66
2022/10/05 06:38:51;;;;;;;;;;;32.10;96.90;;;;;;4172593;28;19932;-66
2022/10/05 06:40:56;;;;;;;;;;;32.10;97.00;;;;;;4172669;28;19928;-66
2022/10/05 06:43:20;;;;;;;;;;;32.10;96.70;;;;;;4172292;28;19975;-67
2022/10/05 06:45:37;;;;;;;;;;;32.10;97.30;;;;;;4173707;28;19932;-66
2022/10/05 06:47:51;;;;;;;;;;;32.00;97.90;;;;;;4171815;28;19978;-67
2022/10/05 06:50:13;;;;;;;;;;;32.10;98.20;;;;;;4186329;28;19928;-66
2022/10/05 06:52:42;;;;;;;;;;;32.20;97.60;;;;;;4189522;28;19928;-66
2022/10/05 06:54:49;;;;;;;;;;;32.30;97.40;;;;;;4188628;28;19938;-67
2022/10/05 06:57:09;;;;;;;;;;;32.30;97.40;;;;;;4188308;28;19955;-67
2022/10/05 06:59:25;;;;;;;;;;;32.40;97.50;;;;;;4190011;28;19928;-67
2022/10/05 07:01:39;;;;;;;;;;;32.50;97.50;;;;;;4188584;28;19978;-66
2022/10/05 07:03:57;;;;;;;;;;;32.50;96.80;;;;;;4188890;28;20462;-66
2022/10/05 07:06:13;;;;;;;;;;;32.50;97.10;;;;;;4204995;28;20292;-66
2022/10/05 07:08:27;;;;;;;;;;;32.50;97.30;;;;;;4183700;28;20280;-67
2022/10/05 07:10:32;;;;;;;;;;;32.40;97.30;;;;;;4172433;28;20051;-66
2022/10/05 07:12:38;;;;;;;;;;;32.30;97.50;;;;;;4192296;28;19928;-67
2022/10/05 07:14:55;;;;;;;;;;;32.20;97.80;;;;;;4190155;28;19932;-66
2022/10/05 07:17:11;;;;;;;;;;;32.20;98.00;;;;;;4190818;28;19928;-67
2022/10/05 07:19:39;;;;;;;;;;;32.30;98.00;;;;;;4168066;28;19964;-68
2022/10/05 07:21:55;;;;;;;;;;;32.30;97.90;;;;;;4189642;28;19928;-67
2022/10/05 07:24:09;;;;;;;;;;;32.20;97.60;;;;;;4188481;28;19960;-66
2022/10/05 07:26:18;;;;;;;;;;;32.10;97.30;;;;;;4184500;28;20286;-67
2022/10/05 07:28:25;;;;;;;;;;;32.20;97.50;;;;;;4200779;28;20041;-68
2022/10/05 07:30:29;;;;;;;;;;;32.30;97.20;;;;;;4173560;28;19960;-68
2022/10/05 07:32:44;;;;;;;;;;;32.30;96.80;;;;;;4189957;28;19959;-67
2022/10/05 07:35:01;;;;;;;;;;;32.20;97.20;;;;;;4214733;28;19967;-67
2022/10/05 07:39:40;;;;;;;;;;;32.30;97.00;;;;;;4191145;28;19928;-67
2022/10/05 07:42:07;;;;;;;;;;;32.30;97.10;;;;;;4152105;28;19939;-68
2022/10/05 07:44:11;;;;;;;;;;;32.30;97.00;;;;;;4183453;28;19932;-67
2022/10/05 07:46:31;;;;;;;;;;;32.30;97.50;;;;;;4190155;28;19936;-68
2022/10/05 07:48:36;;;;;;;;;;;32.30;97.60;;;;;;4200762;28;20001;-67
2022/10/05 07:50:39;;;;;;;;;;;32.30;97.50;;;;;;4191930;28;19935;-67
2022/10/05 07:52:46;;;;;;;;;;;32.40;97.40;;;;;;4190299;28;19924;-67
2022/10/05 07:54:56;;;;;;;;;;;32.50;97.30;;;;;;4198964;28;19932;-68
2022/10/05 07:57:09;;;;;;;;;;;32.50;97.20;;;;;;4188594;28;19932;-68
2022/10/05 07:59:19;;;;;;;;;;;32.50;97.10;;;;;;4188352;28;20738;-66
2022/10/05 08:01:43;;;;;;;;;;;32.60;97.10;;;;;;4189612;28;19929;-67
2022/10/05 08:03:54;;;;;;;;;;;32.60;97.40;;;;;;4190089;28;20018;-66
2022/10/05 08:05:58;;;;;;;;;;;32.60;97.10;;;;;;4189366;28;19938;-68
2022/10/05 08:08:02;;;;;;;;;;;32.60;96.80;;;;;;4191672;28;19928;-69
2022/10/05 08:10:19;;;;;;;;;;;32.60;97.10;;;;;;4188913;28;19929;-68
2022/10/05 08:12:23;;;;;;;;;;;32.60;97.10;;;;;;4188108;28;20940;-68
2022/10/05 08:14:42;;;;;;;;;;;32.60;96.90;;;;;;4194579;28;20002;-68
2022/10/05 08:16:46;;;;;;;;;;;32.60;96.40;;;;;;4190517;28;19956;-69
2022/10/05 08:19:01;;;;;;;;;;;32.50;96.80;;;;;;4197747;28;19970;-68
2022/10/05 08:21:10;;;;;;;;;;;32.50;97.10;;;;;;4190211;28;19930;-68
2022/10/05 08:23:27;;;;;;;;;;;32.50;97.00;;;;;;4210743;28;19970;-68
2022/10/05 08:25:43;;;;;;;;;;;32.50;96.70;;;;;;4189146;28;20292;-68
2022/10/05 08:27:49;;;;;;;;;;;32.50;97.10;;;;;;4178034;28;19936;-67
2022/10/05 08:29:56;;;;;;;;;;;32.50;97.00;;;;;;4215800;28;19928;-68
2022/10/05 08:32:03;;;;;;;;;;;32.50;97.00;;;;;;4200596;28;19928;-67
2022/10/05 08:34:20;;;;;;;;;;;32.40;96.50;;;;;;4180505;28;19935;-67
2022/10/05 08:36:32;;;;;;;;;;;32.30;96.60;;;;;;4177137;28;20025;-68
2022/10/05 08:38:37;;;;;;;;;;;32.30;96.60;;;;;;4184421;28;19932;-68
2022/10/05 08:40:53;;;;;;;;;;;32.30;97.10;;;;;;4181885;28;19933;-68
2022/10/05 08:43:05;;;;;;;;;;;32.30;97.10;;;;;;4190939;28;19928;-68
2022/10/05 08:45:21;;;;;;;;;;;32.30;97.10;;;;;;4190923;28;20077;-67
2022/10/05 08:47:36;;;;;;;;;;;32.40;97.10;;;;;;4191645;28;19967;-68
2022/10/05 08:49:49;;;;;;;;;;;32.30;96.10;;;;;;4207909;28;19928;-69
2022/10/05 08:51:56;;;;;;;;;;;32.30;96.30;;;;;;4189300;28;19928;-68
2022/10/05 08:54:00;;;;;;;;;;;32.30;96.50;;;;;;4180978;28;19928;-69
2022/10/05 08:56:04;;;;;;;;;;;32.30;96.90;;;;;;4188325;28;19928;-68
2022/10/05 09:09:46;;;;;;;;;;;32.30;96.20;;;;;;4177774;28;19983;-69
2022/10/05 09:11:53;;;;;;;;;;;32.20;96.70;;;;;;4198257;28;20402;-68
2022/10/05 09:14:18;;;;;;;;;;;32.20;96.80;;;;;;4218060;28;19938;-68
2022/10/05 09:16:28;;;;;;;;;;;32.30;96.60;;;;;;4214743;28;20031;-68
2022/10/05 09:18:44;;;;;;;;;;;32.20;96.60;;;;;;4203622;28;19974;-69
2022/10/05 09:20:55;;;;;;;;;;;32.10;96.90;;;;;;4203976;28;19978;-67
2022/10/05 09:23:13;;;;;;;;;;;32.10;96.80;;;;;;4195989;28;19936;-69
2022/10/05 09:25:23;;;;;;;;;;;32.10;97.00;;;;;;4205103;28;19964;-68
2022/10/05 09:27:38;;;;;;;;;;;32.10;97.00;;;;;;4186109;28;19970;-69
2022/10/05 09:29:54;;;;;;;;;;;32.10;96.90;;;;;;4204138;28;19950;-69
2022/10/05 09:32:03;;;;;;;;;;;32.10;97.00;;;;;;4205722;28;19935;-69
2022/10/05 09:34:19;;;;;;;;;;;32.10;97.10;;;;;;4190075;28;19975;-69
2022/10/05 09:36:32;;;;;;;;;;;32.10;97.50;;;;;;4205640;28;19978;-69
2022/10/05 09:38:49;;;;;;;;;;;32.00;97.60;;;;;;4209189;28;19928;-69
2022/10/05 09:40:57;;;;;;;;;;;32.00;97.30;;;;;;4176061;28;19929;-69
2022/10/05 09:43:13;;;;;;;;;;;31.90;97.20;;;;;;4196501;28;20018;-68
2022/10/05 09:45:30;;;;;;;;;;;31.90;97.00;;;;;;4185560;28;20279;-68
2022/10/05 09:47:45;;;;;;;;;;;31.90;97.10;;;;;;4184992;28;20661;-70
2022/10/05 09:50:01;;;;;;;;;;;31.90;97.20;;;;;;4202710;28;19927;-68
2022/10/05 09:52:07;;;;;;;;;;;31.90;96.80;;;;;;4204743;28;19928;-71
2022/10/05 09:54:24;;;;;;;;;;;31.80;96.60;;;;;;4185803;28;19932;-69
2022/10/05 09:56:41;;;;;;;;;;;31.80;95.80;;;;;;4167507;28;20346;-69
2022/10/05 09:59:02;;;;;;;;;;;31.80;96.50;;;;;;4179262;28;19928;-68
2022/10/05 10:01:19;;;;;;;;;;;31.80;96.80;;;;;;4211609;28;19931;-70
2022/10/05 10:03:42;;;;;;;;;;;31.70;96.80;;;;;;4170716;28;19994;-70
2022/10/05 10:05:53;;;;;;;;;;;31.60;97.40;;;;;;4189963;28;19935;-70
2022/10/05 10:08:10;;;;;;;;;;;31.60;97.40;;;;;;4195519;28;19942;-69
2022/10/05 10:10:28;;;;;;;;;;;31.60;97.10;;;;;;4207661;28;19928;-69
2022/10/05 10:12:53;;;;;;;;;;;31.60;97.60;;;;;;4202790;28;20393;-71
2022/10/05 10:15:12;;;;;;;;;;;31.60;97.80;;;;;;4208324;28;19990;-69
2022/10/05 10:17:16;;;;;;;;;;;31.60;97.90;;;;;;4206783;28;19962;-69
2022/10/05 10:19:35;;;;;;;;;;;31.60;98.00;;;;;;4209387;28;19967;-69
2022/10/05 10:21:42;;;;;;;;;;;31.50;98.30;;;;;;4211785;28;20366;-69
2022/10/05 10:23:59;;;;;;;;;;;31.50;98.50;;;;;;4228762;28;19924;-70
2022/10/05 10:26:19;;;;;;;;;;;31.40;98.60;;;;;;4169183;28;19986;-70
2022/10/05 10:28:36;;;;;;;;;;;31.40;98.70;;;;;;4220815;28;19928;-70
2022/10/05 10:30:50;;;;;;;;;;;31.30;98.20;;;;;;4241250;27;19980;-70
2022/10/05 10:33:10;;;;;;;;;;;31.30;98.50;;;;;;4229701;28;19930;-69
2022/10/05 10:35:18;;;;;;;;;;;31.30;98.70;;;;;;4195635;28;20107;-68
2022/10/05 10:37:34;;;;;;;;;;;31.20;99.00;;;;;;4178728;28;20451;-69
2022/10/05 10:39:52;;;;;;;;;;;31.20;99.10;;;;;;4192094;28;20394;-69
2022/10/05 10:42:09;;;;;;;;;;;31.20;99.30;;;;;;4201669;28;20023;-69
2022/10/05 10:44:25;;;;;;;;;;;31.20;99.30;;;;;;4217610;28;19928;-71
2022/10/05 10:46:33;;;;;;;;;;;31.10;99.40;;;;;;4204593;28;20027;-69
2022/10/05 10:48:50;;;;;;;;;;;31.10;99.40;;;;;;4227987;28;19928;-68
2022/10/05 10:50:59;;;;;;;;;;;31.00;99.60;;;;;;4210887;28;19999;-69
2022/10/05 10:53:19;;;;;;;;;;;31.00;99.90;;;;;;4195371;28;20418;-68
2022/10/05 10:55:27;;;;;;;;;;;30.90;99.90;;;;;;4209390;28;19928;-69
2022/10/05 10:57:50;;;;;;;;;;;30.90;99.90;;;;;;4226162;28;20034;-68
2022/10/05 11:00:10;;;;;;;;;;;30.90;99.90;;;;;;4229433;27;19932;-68
2022/10/05 11:02:17;;;;;;;;;;;30.80;99.90;;;;;;4212378;28;19993;-69
2022/10/05 11:04:24;;;;;;;;;;;30.70;99.90;;;;;;4210011;28;19935;-71
2022/10/05 11:06:37;;;;;;;;;;;30.70;99.90;;;;;;4209792;28;19928;-70
2022/10/05 11:08:53;;;;;;;;;;;30.70;99.90;;;;;;4211569;28;19927;-67
2022/10/05 11:10:57;;;;;;;;;;;30.70;99.90;;;;;;4231036;27;19935;-69
2022/10/05 11:13:16;;;;;;;;;;;30.60;99.90;;;;;;4216871;28;19932;-70
2022/10/05 11:15:32;;;;;;;;;;;30.60;99.90;;;;;;4220649;27;20285;-70
2022/10/05 11:17:48;;;;;;;;;;;30.60;99.90;;;;;;4213744;28;20014;-69
2022/10/05 11:20:08;;;;;;;;;;;30.60;99.90;;;;;;4203955;28;19932;-68
2022/10/05 11:22:24;;;;;;;;;;;30.60;99.90;;;;;;4224851;28;19967;-69
2022/10/05 11:24:31;;;;;;;;;;;30.50;99.90;;;;;;4223893;28;19927;-68
2022/10/05 11:26:48;;;;;;;;;;;30.50;99.90;;;;;;4207939;28;20368;-69
2022/10/05 11:28:53;;;;;;;;;;;30.50;99.90;;;;;;4205649;28;20026;-69
2022/10/05 11:31:06;;;;;;;;;;;30.40;99.90;;;;;;4226501;28;20363;-69
2022/10/05 11:33:25;;;;;;;;;;;30.40;99.90;;;;;;4224448;28;20655;-69
2022/10/05 11:35:36;;;;;;;;;;;30.40;99.90;;;;;;4205214;28;19963;-69
2022/10/05 11:37:54;;;;;;;;;;;30.40;99.90;;;;;;4206594;28;19934;-69
2022/10/05 11:39:58;;;;;;;;;;;30.40;99.90;;;;;;4207016;28;19932;-67
2022/10/05 11:42:03;;;;;;;;;;;30.30;99.90;;;;;;4226007;28;20303;-68
2022/10/05 11:44:07;;;;;;;;;;;30.30;99.90;;;;;;4225622;28;19928;-70
2022/10/05 11:46:19;;;;;;;;;;;30.30;99.90;;;;;;4167498;28;19929;-69
2022/10/05 11:48:26;;;;;;;;;;;30.30;99.90;;;;;;4222633;27;19931;-69
2022/10/05 11:50:42;;;;;;;;;;;30.30;99.90;;;;;;4172192;27;20905;-71
2022/10/05 11:52:47;;;;;;;;;;;30.20;99.90;;;;;;4204010;28;20583;-71
2022/10/05 11:55:02;;;;;;;;;;;30.20;99.90;;;;;;4220329;27;19928;-67
2022/10/05 11:57:24;;;;;;;;;;;30.20;99.90;;;;;;4211853;28;19974;-67
2022/10/05 11:59:38;;;;;;;;;;;30.10;99.90;;;;;;4188072;27;20246;-67
2022/10/05 12:01:45;;;;;;;;;;;30.20;99.90;;;;;;4155733;28;20759;-68
2022/10/05 12:03:56;;;;;;;;;;;30.20;99.90;;;;;;4189518;28;19929;-68
2022/10/05 12:06:12;;;;;;;;;;;30.10;99.90;;;;;;4181534;28;19928;-69
2022/10/05 12:08:19;;;;;;;;;;;30.10;99.90;;;;;;4177488;27;20481;-67
2022/10/05 12:10:32;;;;;;;;;;;30.10;99.90;;;;;;4230167;27;19931;-67
2022/10/05 12:12:43;;;;;;;;;;;30.10;99.90;;;;;;4208189;28;19928;-66
2022/10/05 12:15:01;;;;;;;;;;;30.10;99.90;;;;;;4243026;27;19933;-67
2022/10/05 12:17:17;;;;;;;;;;;30.10;99.90;;;;;;4201269;28;19952;-67
2022/10/05 12:19:27;;;;;;;;;;;30.10;99.90;;;;;;4259715;27;19930;-67
2022/10/05 12:21:35;;;;;;;;;;;30.10;99.90;;;;;;4217328;28;19928;-68
2022/10/05 12:23:58;;;;;;;;;;;30.00;99.90;;;;;;4206338;28;19928;-68
2022/10/05 12:26:06;;;;;;;;;;;30.00;99.90;;;;;;4226713;28;19963;-69
2022/10/05 12:28:12;;;;;;;;;;;30.00;99.90;;;;;;4206181;28;20574;-69
2022/10/05 12:30:28;;;;;;;;;;;30.00;99.90;;;;;;4226590;28;20402;-71
2022/10/05 12:32:36;;;;;;;;;;;30.00;99.90;;;;;;4217975;27;19924;-68
2022/10/05 12:34:56;;;;;;;;;;;30.00;99.90;;;;;;4153699;28;21324;-68
2022/10/05 12:37:15;;;;;;;;;;;29.90;99.90;;;;;;4222015;28;19934;-68
2022/10/05 12:39:31;;;;;;;;;;;30.00;99.90;;;;;;4201516;28;19928;-68
2022/10/05 12:41:40;;;;;;;;;;;29.90;99.90;;;;;;4224948;28;19935;-67
2022/10/05 12:43:55;;;;;;;;;;;29.90;99.90;;;;;;4192260;28;20454;-68
2022/10/05 12:46:04;;;;;;;;;;;29.90;99.90;;;;;;4191682;28;20023;-69
2022/10/05 12:48:11;;;;;;;;;;;29.90;99.90;;;;;;4225637;27;20713;-66
2022/10/05 12:50:17;;;;;;;;;;;29.90;99.90;;;;;;4203027;28;19971;-69
2022/10/05 12:52:37;;;;;;;;;;;29.90;99.90;;;;;;4226009;28;20022;-69
2022/10/05 12:54:48;;;;;;;;;;;29.80;99.90;;;;;;4207517;28;19963;-70
2022/10/05 12:57:14;;;;;;;;;;;29.80;99.90;;;;;;4226568;28;19935;-69
2022/10/05 12:59:33;;;;;;;;;;;29.80;99.90;;;;;;4189790;28;19934;-69
2022/10/05 13:01:41;;;;;;;;;;;29.80;99.90;;;;;;4175941;28;20002;-69
2022/10/05 13:03:49;;;;;;;;;;;29.80;99.90;;;;;;4125327;28;20192;-69
2022/10/05 13:05:56;;;;;;;;;;;29.80;99.90;;;;;;4204951;28;19928;-67
2022/10/05 13:08:17;;;;;;;;;;;29.80;99.90;;;;;;4219245;27;19938;-70
2022/10/05 13:10:26;;;;;;;;;;;29.80;99.90;;;;;;4204298;28;19962;-68
2022/10/05 13:12:46;;;;;;;;;;;29.70;99.90;;;;;;4207610;28;19928;-68